createdAt,value
2023-05-07T00:01:46.768Z,8.01
2023-05-07T00:04:53.680Z,7.93
2023-05-07T00:07:59.845Z,7.85
2023-05-07T00:11:08.982Z,7.79
2023-05-07T00:14:14.484Z,7.79
2023-05-07T00:17:21.181Z,7.59
2023-05-07T00:20:26.714Z,7.39
2023-05-07T00:23:33.058Z,7.20
2023-05-07T00:26:41.319Z,7.12
2023-05-07T00:29:47.670Z,6.99
2023-05-07T00:32:53.188Z,6.92
2023-05-07T00:35:59.669Z,6.79
2023-05-07T00:39:05.942Z,6.83
2023-05-07T00:42:16.317Z,6.77
2023-05-07T00:45:22.029Z,6.71
2023-05-07T00:48:30.310Z,6.66
2023-05-07T00:51:38.325Z,6.64
2023-05-07T00:54:46.655Z,6.60
2023-05-07T00:57:55.819Z,6.61
2023-05-07T01:01:02.350Z,6.59
2023-05-07T01:04:08.032Z,6.67
2023-05-07T01:07:15.169Z,6.67
2023-05-07T01:10:22.562Z,6.73
2023-05-07T01:13:32.939Z,6.75
2023-05-07T01:16:38.717Z,6.79
2023-05-07T01:19:45.354Z,6.71
2023-05-07T01:22:55.050Z,6.69
2023-05-07T01:26:01.436Z,6.71
2023-05-07T01:29:09.015Z,6.73
2023-05-07T01:32:19.916Z,6.71
2023-05-07T01:35:36.629Z,6.61
2023-05-07T01:38:47.304Z,6.86
2023-05-07T01:41:53.995Z,6.90
2023-05-07T01:45:01.120Z,7.00
2023-05-07T01:48:08.265Z,7.12
2023-05-07T01:51:14.634Z,7.18
2023-05-07T01:54:23.141Z,7.25
2023-05-07T01:57:29.490Z,7.29
2023-05-07T02:00:36.076Z,7.15
2023-05-07T02:03:43.213Z,7.02
2023-05-07T02:06:57.029Z,6.97
2023-05-07T02:10:07.505Z,6.89
2023-05-07T02:13:13.140Z,6.93
2023-05-07T02:16:20.720Z,6.91
2023-05-07T02:19:26.704Z,6.83
2023-05-07T02:22:33.289Z,6.63
2023-05-07T02:25:42.206Z,6.61
2023-05-07T02:28:48.681Z,6.63
2023-05-07T02:31:54.412Z,6.64
2023-05-07T02:35:01.136Z,6.63
2023-05-07T02:38:06.767Z,6.55
2023-05-07T02:41:17.078Z,6.56
2023-05-07T02:44:22.534Z,6.45
2023-05-07T02:47:31.180Z,6.40
2023-05-07T02:50:38.250Z,6.38
2023-05-07T02:53:44.869Z,6.45
2023-05-07T02:56:53.196Z,6.44
2023-05-07T02:59:59.551Z,6.46
2023-05-07T03:03:07.843Z,6.49
2023-05-07T03:06:14.559Z,6.52
2023-05-07T03:09:20.631Z,6.56
2023-05-07T03:12:29.929Z,6.57
2023-05-07T03:15:35.855Z,6.55
2023-05-07T03:18:42.295Z,6.49
2023-05-07T03:21:47.826Z,6.36
2023-05-07T03:24:54.274Z,6.34
2023-05-07T03:28:02.660Z,6.15
2023-05-07T03:31:18.431Z,5.99
2023-05-07T03:34:24.074Z,6.02
2023-05-07T03:37:30.795Z,6.05
2023-05-07T03:40:36.878Z,6.06
2023-05-07T03:43:47.598Z,6.04
2023-05-07T03:46:53.343Z,6.00
2023-05-07T03:50:00.705Z,5.99
2023-05-07T03:53:06.227Z,5.95
2023-05-07T03:56:18.452Z,5.89
2023-05-07T03:59:28.596Z,5.87
2023-05-07T04:02:35.202Z,5.68
2023-05-07T04:05:42.326Z,5.75
2023-05-07T04:08:48.748Z,5.70
2023-05-07T04:11:54.448Z,5.57
2023-05-07T04:15:03.653Z,5.50
2023-05-07T04:18:09.517Z,5.48
2023-05-07T04:21:21.527Z,5.48
2023-05-07T04:24:29.170Z,5.48
2023-05-07T04:27:35.802Z,5.42
2023-05-07T04:30:44.922Z,5.34
2023-05-07T04:33:51.936Z,5.21
2023-05-07T04:36:58.242Z,5.26
2023-05-07T04:40:04.654Z,5.42
2023-05-07T04:43:10.719Z,5.49
2023-05-07T04:46:27.944Z,5.56
2023-05-07T04:49:36.175Z,5.66
2023-05-07T04:52:42.850Z,5.72
2023-05-07T04:55:49.106Z,5.74
2023-05-07T04:58:55.625Z,5.70
2023-05-07T05:02:05.401Z,5.69
2023-05-07T05:05:13.023Z,5.73
2023-05-07T05:08:18.909Z,5.75
2023-05-07T05:11:26.023Z,5.73
2023-05-07T05:14:32.861Z,5.75
2023-05-07T05:17:43.356Z,5.56
2023-05-07T05:20:49.661Z,5.49
2023-05-07T05:23:56.280Z,5.34
2023-05-07T05:27:04.319Z,5.37
2023-05-07T05:30:13.424Z,5.41
2023-05-07T05:33:23.700Z,5.48
2023-05-07T05:36:30.435Z,5.60
2023-05-07T05:39:37.132Z,5.71
2023-05-07T05:42:44.495Z,5.64
2023-05-07T05:45:51.243Z,5.73
2023-05-07T05:49:01.064Z,5.68
2023-05-07T05:52:07.586Z,5.58
2023-05-07T05:55:15.108Z,5.66
2023-05-07T05:58:20.966Z,5.61
2023-05-07T06:01:33.007Z,5.50
2023-05-07T06:04:44.317Z,5.46
2023-05-07T06:07:54.085Z,5.29
2023-05-07T06:11:00.696Z,5.10
2023-05-07T06:14:08.748Z,5.11
2023-05-07T06:17:14.838Z,5.03
2023-05-07T06:20:24.578Z,5.04
2023-05-07T06:23:30.239Z,3.58
2023-05-07T06:26:36.736Z,4.72
2023-05-07T06:29:42.472Z,4.88
2023-05-07T06:32:54.166Z,4.78
2023-05-07T06:36:02.686Z,4.90
2023-05-07T06:39:09.439Z,4.95
2023-05-07T06:42:15.688Z,5.01
2023-05-07T06:45:25.456Z,5.07
2023-05-07T06:48:33.413Z,5.09
2023-05-07T06:51:47.666Z,5.03
2023-05-07T06:54:53.247Z,4.98
2023-05-07T06:58:02.467Z,5.05
2023-05-07T07:01:08.593Z,5.03
2023-05-07T07:04:16.359Z,5.17
2023-05-07T07:07:27.242Z,5.28
2023-05-07T07:10:33.631Z,5.34
2023-05-07T07:13:41.412Z,5.35
2023-05-07T07:16:48.261Z,5.39
2023-05-07T07:19:55.989Z,5.40
2023-05-07T07:23:05.549Z,5.34
2023-05-07T07:26:11.253Z,5.26
2023-05-07T07:29:17.893Z,5.32
2023-05-07T07:32:23.452Z,5.47
2023-05-07T07:35:31.633Z,5.50
2023-05-07T07:38:40.462Z,5.62
2023-05-07T07:41:47.711Z,5.80
2023-05-07T07:44:54.440Z,5.85
2023-05-07T07:48:03.133Z,5.69
2023-05-07T07:51:12.466Z,5.68
2023-05-07T07:54:21.964Z,5.61
2023-05-07T07:57:27.869Z,5.67
2023-05-07T08:00:34.853Z,5.73
2023-05-07T08:03:40.820Z,5.71
2023-05-07T08:06:47.506Z,5.73
2023-05-07T08:09:56.686Z,5.73
2023-05-07T08:13:05.962Z,5.82
2023-05-07T08:16:13.377Z,5.96
2023-05-07T08:19:21.023Z,6.08
2023-05-07T08:22:26.627Z,6.10
2023-05-07T08:25:38.742Z,6.14
2023-05-07T08:28:44.753Z,6.12
2023-05-07T08:31:51.167Z,6.18
2023-05-07T08:34:56.920Z,6.18
2023-05-07T08:38:03.345Z,6.28
2023-05-07T08:41:14.738Z,6.17
2023-05-07T08:44:31.188Z,5.41
2023-05-07T08:47:46.768Z,6.02
2023-05-07T08:50:54.642Z,6.00
2023-05-07T08:54:02.083Z,5.92
2023-05-07T08:57:14.994Z,5.84
2023-05-07T09:00:21.414Z,5.67
2023-05-07T09:03:30.804Z,5.85
2023-05-07T09:06:39.342Z,5.76
2023-05-07T09:09:45.843Z,6.10
2023-05-07T09:12:55.463Z,6.12
2023-05-07T09:16:01.975Z,5.94
2023-05-07T09:19:07.861Z,6.02
2023-05-07T09:22:14.936Z,5.82
2023-05-07T09:25:45.050Z,5.77
2023-05-07T09:29:01.540Z,5.53
2023-05-07T09:32:09.682Z,5.60
2023-05-07T09:35:22.817Z,5.73
2023-05-07T09:38:33.371Z,5.85
2023-05-07T09:41:48.948Z,6.03
2023-05-07T09:45:19.157Z,6.05
2023-05-07T09:48:26.262Z,5.79
2023-05-07T09:51:43.145Z,5.80
2023-05-07T09:54:54.428Z,5.80
2023-05-07T09:58:04.724Z,5.97
2023-05-07T10:01:16.979Z,6.00
2023-05-07T10:04:25.663Z,6.05
2023-05-07T10:07:34.106Z,6.16
2023-05-07T10:10:46.132Z,6.20
2023-05-07T10:13:58.005Z,6.09
2023-05-07T10:17:07.438Z,6.06
2023-05-07T10:20:15.385Z,6.14
2023-05-07T10:23:30.218Z,6.16
2023-05-07T10:26:41.890Z,6.18
2023-05-07T10:30:09.845Z,6.21
2023-05-07T10:33:30.159Z,6.27
2023-05-07T10:36:38.580Z,6.29
2023-05-07T10:39:47.011Z,6.16
2023-05-07T10:43:01.927Z,6.11
2023-05-07T10:46:22.632Z,6.03
2023-05-07T10:50:06.747Z,5.99
2023-05-07T10:53:30.878Z,6.00
2023-05-07T10:56:49.016Z,5.92
2023-05-07T11:00:01.185Z,5.94
2023-05-07T11:03:13.274Z,5.90
2023-05-07T11:06:29.124Z,5.95
2023-05-07T11:10:05.263Z,5.95
2023-05-07T11:13:57.414Z,6.09
2023-05-07T11:17:35.710Z,6.26
2023-05-07T11:20:54.549Z,6.46
2023-05-07T11:24:23.368Z,6.70
2023-05-07T11:27:38.344Z,6.84
2023-05-07T11:30:47.613Z,6.89
2023-05-07T11:33:58.919Z,6.88
2023-05-07T11:37:06.787Z,6.54
2023-05-07T11:40:31.280Z,6.47
2023-05-07T11:43:37.791Z,6.40
2023-05-07T11:46:48.407Z,6.02
2023-05-07T11:50:17.177Z,6.07
2023-05-07T11:53:28.817Z,6.12
2023-05-07T11:56:39.693Z,6.01
2023-05-07T11:59:46.544Z,6.00
2023-05-07T12:02:52.318Z,5.96
2023-05-07T12:05:59.253Z,5.85
2023-05-07T12:09:06.242Z,5.80
2023-05-07T12:12:16.899Z,5.79
2023-05-07T12:15:26.954Z,5.90
2023-05-07T12:18:34.236Z,6.00
2023-05-07T12:21:40.596Z,6.07
2023-05-07T12:24:51.739Z,6.22
2023-05-07T12:28:00.225Z,6.43
2023-05-07T12:31:07.296Z,6.71
2023-05-07T12:34:14.824Z,6.85
2023-05-07T12:37:30.305Z,7.03
2023-05-07T12:40:42.307Z,7.13
2023-05-07T12:43:51.957Z,7.23
2023-05-07T12:46:57.624Z,7.23
2023-05-07T12:50:04.021Z,7.22
2023-05-07T12:53:16.774Z,7.09
2023-05-07T12:56:23.372Z,7.00
2023-05-07T12:59:44.561Z,7.06
2023-05-07T13:02:51.480Z,7.02
2023-05-07T13:06:16.407Z,6.95
2023-05-07T13:09:33.336Z,6.86
2023-05-07T13:12:54.553Z,6.77
2023-05-07T13:16:04.385Z,6.70
2023-05-07T13:19:09.907Z,6.63
2023-05-07T13:22:16.368Z,6.61
2023-05-07T13:25:22.170Z,6.61
2023-05-07T13:28:30.551Z,6.64
2023-05-07T13:31:39.035Z,6.71
2023-05-07T13:34:45.544Z,6.73
2023-05-07T13:37:53.316Z,6.77
2023-05-07T13:40:59.663Z,6.69
2023-05-07T13:44:05.499Z,6.77
2023-05-07T13:47:15.311Z,6.78
2023-05-07T13:50:21.019Z,6.81
2023-05-07T13:53:27.773Z,6.84
2023-05-07T13:56:33.704Z,6.69
2023-05-07T13:59:40.117Z,6.59
2023-05-07T14:02:48.603Z,6.56
2023-05-07T14:05:55.059Z,6.54
2023-05-07T14:09:01.508Z,6.54
2023-05-07T14:12:12.279Z,6.54
2023-05-07T14:15:18.968Z,6.52
2023-05-07T14:18:30.052Z,6.52
2023-05-07T14:21:35.696Z,6.51
2023-05-07T14:27:48.403Z,6.51
2023-05-07T14:30:54.925Z,6.50
2023-05-07T14:34:03.727Z,6.45
2023-05-07T14:37:10.396Z,6.52
2023-05-07T14:40:16.802Z,6.55
2023-05-07T14:43:23.427Z,6.65
2023-05-07T14:46:29.721Z,6.74
2023-05-07T14:49:39.351Z,6.90
2023-05-07T14:52:45.096Z,7.02
2023-05-07T14:55:52.493Z,7.20
2023-05-07T14:58:58.186Z,7.17
2023-05-07T15:02:07.166Z,7.03
2023-05-07T15:05:16.097Z,6.90
2023-05-07T15:08:22.757Z,6.93
2023-05-07T15:11:28.578Z,6.51
2023-05-07T15:14:35.112Z,6.31
2023-05-07T15:17:41.128Z,6.09
2023-05-07T15:20:50.825Z,5.95
2023-05-07T15:23:56.479Z,5.94
2023-05-07T15:27:03.999Z,5.83
2023-05-07T15:30:15.487Z,5.71
2023-05-07T15:33:21.914Z,5.71
2023-05-07T15:36:31.158Z,5.74
2023-05-07T15:39:38.720Z,5.73
2023-05-07T15:42:44.424Z,5.68
2023-05-07T15:45:51.098Z,5.67
2023-05-07T15:48:58.228Z,5.69
2023-05-07T15:52:08.024Z,5.78
2023-05-07T15:55:14.082Z,5.91
2023-05-07T15:58:21.543Z,6.01
2023-05-07T16:01:27.360Z,6.02
2023-05-07T16:04:33.988Z,6.06
2023-05-07T16:07:45.010Z,6.09
2023-05-07T16:10:51.655Z,6.04
2023-05-07T16:13:57.457Z,6.07
2023-05-07T16:17:04.105Z,6.09
2023-05-07T16:20:13.353Z,6.18
2023-05-07T16:23:22.993Z,6.25
2023-05-07T16:26:28.683Z,6.31
2023-05-07T16:29:35.307Z,6.31
2023-05-07T16:32:41.215Z,6.21
2023-05-07T16:35:55.060Z,6.07
2023-05-07T16:39:04.741Z,6.05
2023-05-07T16:42:11.411Z,6.04
2023-05-07T16:45:19.025Z,5.97
2023-05-07T16:48:25.791Z,5.94
2023-05-07T16:51:31.946Z,5.93
2023-05-07T16:54:42.395Z,5.83
2023-05-07T16:57:48.753Z,5.77
2023-05-07T17:00:55.703Z,5.74
2023-05-07T17:04:01.825Z,5.72
2023-05-07T17:07:08.976Z,5.70
2023-05-07T17:10:18.302Z,5.74
2023-05-07T17:13:25.336Z,5.71
2023-05-07T17:16:32.712Z,5.71
2023-05-07T17:19:42.287Z,5.76
2023-05-07T17:22:48.075Z,5.80
2023-05-07T17:25:58.014Z,5.86
2023-05-07T17:29:03.960Z,5.89
2023-05-07T17:32:11.127Z,5.88
2023-05-07T17:35:17.018Z,5.88
2023-05-07T17:38:24.122Z,5.85
2023-05-07T17:41:32.968Z,5.87
2023-05-07T17:44:40.327Z,5.91
2023-05-07T17:47:46.252Z,5.96
2023-05-07T17:50:53.065Z,5.94
2023-05-07T17:54:00.196Z,5.90
2023-05-07T17:57:09.872Z,5.79
2023-05-07T18:00:17.549Z,5.69
2023-05-07T18:03:29.593Z,5.60
2023-05-07T18:06:37.619Z,5.58
2023-05-07T18:09:46.512Z,5.51
2023-05-07T18:12:57.391Z,5.42
2023-05-07T18:16:08.234Z,5.38
2023-05-07T18:19:14.140Z,5.35
2023-05-07T18:22:22.077Z,5.40
2023-05-07T18:25:28.475Z,5.37
2023-05-07T18:28:38.433Z,5.29
2023-05-07T18:31:45.491Z,5.30
2023-05-07T18:34:52.833Z,5.39
2023-05-07T18:38:00.161Z,5.39
2023-05-07T18:41:09.187Z,5.37
2023-05-07T18:44:21.154Z,5.29
2023-05-07T18:47:28.194Z,5.28
2023-05-07T18:50:36.388Z,5.35
2023-05-07T18:53:44.766Z,5.37
2023-05-07T18:56:52.472Z,5.35
2023-05-07T19:00:02.219Z,5.39
2023-05-07T19:03:08.960Z,5.39
2023-05-07T19:06:16.363Z,5.38
2023-05-07T19:09:24.791Z,5.45
2023-05-07T19:12:31.585Z,5.46
2023-05-07T19:15:42.060Z,5.37
2023-05-07T19:18:55.054Z,5.41
2023-05-07T19:22:12.939Z,5.39
2023-05-07T19:25:25.448Z,5.39
2023-05-07T19:28:34.757Z,5.38
2023-05-07T19:31:46.279Z,5.35
2023-05-07T19:34:59.237Z,5.34
2023-05-07T19:38:08.432Z,5.28
2023-05-07T19:41:14.984Z,5.23
2023-05-07T19:44:25.504Z,5.23
2023-05-07T19:47:36.627Z,5.20
2023-05-07T19:50:43.820Z,5.10
2023-05-07T19:53:50.033Z,5.09
2023-05-07T19:56:59.322Z,5.01
2023-05-07T20:00:06.252Z,4.99
2023-05-07T20:03:23.292Z,4.84
2023-05-07T20:06:30.148Z,4.91
2023-05-07T20:09:39.661Z,4.85
2023-05-07T20:12:47.205Z,4.86
2023-05-07T20:15:54.323Z,4.91
2023-05-07T20:19:03.071Z,4.94
2023-05-07T20:22:09.965Z,4.96
2023-05-07T20:25:16.483Z,5.04
2023-05-07T20:28:24.530Z,5.08
2023-05-07T20:31:32.547Z,5.11
2023-05-07T20:34:42.436Z,5.15
2023-05-07T20:37:48.690Z,5.08
2023-05-07T20:40:55.872Z,5.20
2023-05-07T20:44:02.652Z,5.08
2023-05-07T20:47:09.489Z,5.16
2023-05-07T20:50:18.867Z,5.23
2023-05-07T20:53:25.555Z,5.30
2023-05-07T20:56:31.734Z,5.27
2023-05-07T20:59:40.455Z,5.25
2023-05-07T21:02:47.419Z,5.31
2023-05-07T21:06:00.934Z,5.24
2023-05-07T21:09:06.953Z,5.09
2023-05-07T21:12:16.066Z,4.98
2023-05-07T21:15:22.270Z,4.93
2023-05-07T21:18:31.120Z,4.83
2023-05-07T21:21:39.770Z,4.73
2023-05-07T21:24:46.321Z,4.73
2023-05-07T21:27:52.070Z,4.65
2023-05-07T21:30:58.639Z,4.51
2023-05-07T21:34:04.414Z,4.40
2023-05-07T21:37:13.777Z,4.24
2023-05-07T21:40:19.859Z,4.16
2023-05-07T21:43:26.341Z,4.06
2023-05-07T21:46:31.996Z,4.01
2023-05-07T21:49:38.590Z,3.98
2023-05-07T21:52:47.121Z,4.01
2023-05-07T21:55:53.693Z,4.01
2023-05-07T21:58:59.243Z,4.01
2023-05-07T22:02:05.934Z,4.00
2023-05-07T22:05:12.974Z,4.02
2023-05-07T22:08:22.648Z,3.96
2023-05-07T22:11:28.372Z,4.00
2023-05-07T22:14:34.710Z,3.99
2023-05-07T22:17:40.446Z,4.07
2023-05-07T22:20:46.851Z,4.00
2023-05-07T22:23:55.210Z,3.98
2023-05-07T22:27:01.571Z,3.96
2023-05-07T22:30:07.944Z,3.97
2023-05-07T22:33:14.311Z,3.99
2023-05-07T22:36:19.801Z,3.97
2023-05-07T22:39:31.529Z,4.05
2023-05-07T22:42:37.022Z,4.03
2023-05-07T22:45:43.672Z,3.99
2023-05-07T22:48:49.424Z,4.01
2023-05-07T22:51:55.836Z,4.00
2023-05-07T22:55:04.267Z,4.04
2023-05-07T22:58:11.091Z,4.06
2023-05-07T23:01:18.933Z,4.09
2023-05-07T23:04:25.861Z,4.12
2023-05-07T23:07:31.961Z,4.14
2023-05-07T23:10:41.307Z,4.14
2023-05-07T23:13:46.829Z,4.13
2023-05-07T23:16:53.489Z,4.05
2023-05-07T23:19:59.175Z,4.05
2023-05-07T23:23:05.966Z,4.04
2023-05-07T23:26:14.365Z,3.99
2023-05-07T23:29:20.714Z,3.94
2023-05-07T23:32:26.586Z,3.80
2023-05-07T23:35:32.982Z,3.78
2023-05-07T23:38:38.741Z,3.73
2023-05-07T23:41:48.508Z,3.47
2023-05-07T23:44:54.092Z,3.79
2023-05-07T23:48:01.471Z,3.85
2023-05-07T23:51:07.584Z,3.92
2023-05-07T23:54:13.911Z,3.96
2023-05-07T23:57:22.132Z,3.99
